Pagina principale
METAR-TAF:

METAR-TAF

Aeroporti :

Aeroporto di Rimini-Miramare

Rimini, Italia

latitudine: 44-02N, longitudine: 012-37E, altezza: 12 m

Osservazione

Il bollettino è stato emesso 10 minuti fa, alle 20:20 UTC
Vento 5 kt da sud-est
Temperature 21°C
Umidità 73%
Pressione 1016 hPa
Visibilità 10 km o più
nessuna nube inferiore a 1500 m e nessun cumulonembo

METAR: LIPR 162020Z 14005KT CAVOK 21/16 Q1016

Ora: 22:30 (20:30 UTC)

Previsione

Il bollettino è stato emesso 3 ore e 30 minuti fa, alle 17:00 UTC
Previsione valida dal 16 alle 18 UTC al 17 alle 03 UTC
Vento 5 kt da direzioni variabili
Visibilità 10 km o più
nessuna nube inferiore a 1500 m e nessun cumulonembo

TAF: LIPR 161700Z 1618/1703 VRB05KT CAVOK

Osservazioni e previsioni meteorologiche di più di 4000 aeroporti (messaggi METAR e TAF).

Le stazioni disponibili sono rappresentate dai dischi gialli e rossi sulla carta.

Puntare il mouse per vedere il nome della stazione.

Clicca sopra per visualizzare le osservazioni e previsioni meteorologiche.

Per cambiare la mappa : fare clic sui pulsanti verdi con una croce nera per ingrandire, il pulsante verde con un trattino per diminuire, o sulla freccia verde per le mappe adiacenti.


METAR-TAF: